Flight Track Log - Related Links

Times and Time Zones

All times are in EDT time to prevent confusion due to time zone crossing. See the EJA328 flight status page for this flight to view local times or setup timezone preferences in your user account.

Time Position Orientation Groundspeed Altitude Reporting Facility
EDT Latitude Longitude Course Direction KTS MPH feet Rate Location/Type
Thu 11:39:15 AM 30.5397 -85.9097 326° Northwest 275 316 11,100  Level Jacksonville Center
Thu 11:41:10 AM 30.6608 -86.0053 326° Northwest 276 318 19,500 3,876 Climbing Houston Center
Thu 11:42:13 AM 30.7208 -86.0564 324° Northwest 271 312 22,600 2,160 Climbing Houston Center
Thu 11:43:15 AM 30.7892 -86.1233 320° Northwest 299 344 24,000 689 Climbing Jacksonville Center
Thu 11:44:15 AM 30.7822 -86.2342 266° West 284 327 24,000  Level Jacksonville Center
Thu 11:45:15 AM 30.7664 -86.3544 261° West 342 394 24,000  Level Jacksonville Center
Thu 11:46:15 AM 30.7597 -86.4508 265° West 335 386 24,000  Level Jacksonville Center
Thu 11:47:15 AM 30.7458 -86.5639 262° West 348 400 24,000  Level Jacksonville Center
Thu 11:48:15 AM 30.7319 -86.6819 262° West 359 413 24,000  Level Jacksonville Center
Thu 11:49:15 AM 30.7161 -86.7947 261° West 359 413 24,000  Level Jacksonville Center
Thu 11:50:15 AM 30.7000 -86.9078 261° West 359 413 24,000  Level Jacksonville Center
Thu 11:51:15 AM 30.6861 -87.0206 262° West 365 420 24,000  Level Jacksonville Center
Thu 11:52:15 AM 30.6719 -87.1311 262° West 365 420 24,000  Level Jacksonville Center
Thu 11:54:39 AM 30.6364 -87.4072 262° West 357 411 24,000  Level Houston Center
Thu 11:55:41 AM 30.6208 -87.5208 261° West 357 411 24,000  Level Houston Center
Thu 11:56:43 AM 30.6061 -87.6358 262° West 357 411 24,000  Level Houston Center
Thu 11:57:46 AM 30.5875 -87.7731 261° West 357 411 24,000  Level Houston Center
Thu 11:58:48 AM 30.5731 -87.8872 262° West 357 411 24,000  Level Houston Center
Thu 11:59:50 AM 30.5567 -88.0017 261° West 357 411 24,000  Level Houston Center
Thu 12:00:52 PM 30.5414 -88.1158 261° West 357 411 24,000  Level Houston Center
Thu 12:01:54 PM 30.5256 -88.2306 261° West 357 411 24,000  Level Houston Center
Thu 12:02:56 PM 30.5106 -88.3453 261° West 358 412 24,000  Level Houston Center
Thu 12:03:59 PM 30.4914 -88.4822 261° West 357 411 24,000 -144 Level Houston Center
Thu 12:05:01 PM 30.4756 -88.5950 261° West 357 411 23,700 -774 Descending Houston Center
Thu 12:06:03 PM 30.4597 -88.7111 261° West 359 413 22,400 -1,210 Descending Houston Center
Thu 12:07:05 PM 30.4431 -88.8283 261° West 366 421 21,200 -1,210 Descending Houston Center
Thu 12:08:07 PM 30.4267 -88.9442 261° West 366 421 19,900 -1,296 Descending Houston Center
Thu 12:09:10 PM 30.4081 -89.0725 260° West 358 412 18,500 -1,248 Descending Houston Center
Thu 12:10:12 PM 30.3700 -89.1781 247° West 357 411 17,300 -1,163 Descending Houston Center
Thu 12:10:48 PM 30.3450 -89.2489 248° West 355 409 16,600 -1,161 Descending Houston Center
Thu 12:11:14 PM 30.3314 -89.2806 244° Southwest 354 407 16,100 -1,164 Descending Houston Center
Thu 12:11:55 PM 30.3053 -89.3567 248° West 336 387 15,300 -1,065 Descending Houston Center
Thu 12:12:16 PM 30.2953 -89.3806 244° Southwest 341 392 15,000 -1,100 Descending Houston Center
Thu 12:12:55 PM 30.2669 -89.4550 246° West 334 384 14,200 -1,161 Descending Houston Center
Thu 12:13:18 PM 30.2572 -89.4800 246° West 340 391 13,800 -1,164 Descending Houston Center
Thu 12:14:02 PM 30.2253 -89.5700 248° West 337 388 12,900 -1,048 Descending Houston Center
Thu 12:14:21 PM 30.2206 -89.5808 243° Southwest 339 390 12,700 -1,180 Descending Houston Center
Thu 12:15:03 PM 30.1869 -89.6681 246° West 334 384 11,700 -1,355 Descending Houston Center
Thu 12:15:23 PM 30.1750 -89.7003 247° West 335 386 11,300 -1,000 Descending Houston Center
Thu 12:15:39 PM 30.1639 -89.7292 246° West 335 386 11,100 -1,258 Descending Houston Center
Thu 12:16:25 PM 30.1414 -89.7944 248° West 314 361 10,000 -1,574 Descending Houston Center
Thu 12:16:40 PM 30.1333 -89.8147 245° Southwest 275 316 9,500 -1,839 Descending Houston Center
Thu 12:17:27 PM 30.1003 -89.8622 231° Southwest 288 331 8,100 -1,770 Descending Houston Center
Thu 12:17:41 PM 30.0853 -89.8747 216° Southwest 254 292 7,700 -1,839 Descending Houston Center
Thu 12:18:29 PM 30.0422 -89.9128 217° Southwest 271 312 6,200 -1,973 Descending Houston Center
Thu 12:18:54 PM 30.0072 -89.9214 192° South 265 305 5,300 -1,524 Descending Houston Center
Thu 12:19:32 PM 29.9725 -89.9183 176° South 259 298 4,600 -1,180 Descending Houston Center
Thu 12:19:55 PM 29.9406 -89.9217 185° South 232 267 4,100 -1,065 Descending Houston Center
Thu 12:20:34 PM 29.9308 -89.9494 248° West 237 273 3,500 -1,082 Descending Houston Center
Thu 12:20:56 PM 29.9381 -89.9794 286° West 195 224 3,000 -871 Descending Houston Center
Thu 12:21:36 PM 29.9539 -90.0172 296° West 204 235 2,600 -600 Descending Houston Center
Thu 12:21:56 PM 29.9669 -90.0264 329° Northwest 159 183 2,400 -1,065 Descending Houston Center
Thu 12:22:38 PM 29.9897 -90.0294 353° North 161 185 1,500 -1,200 Descending Houston Center
Thu 12:22:51 PM 29.9961 -90.0297 358° North 111 128 1,300 -1,161 Descending Houston Center
Thu 12:23:40 PM 30.0219 -90.0303 359° North 132 152 300 -589 Descending Houston Center
Thu 12:24:43 PM 30.0547 -90.0306 360° North 129 148 200 -95 Descending Houston Center

Login

Don't have an account? Register now (free) for customized features, flight alerts, and more!